Friday, January 18, 2019, 10:44 PM CST
Back to Local

KVPZ, Valparaiso Porter Co Muni

Location: Valparaiso, IN, United States Lat: 41.45
Local Time: 10:44 PM CST ( 4:44 GMT) Lon: -87
Time Zone: US/Central Elev: 770 ft

Show me the last for .
Show Coded

Time T Td Feel RH Dir Speed Gust Alt SLP Vis Weather Sky Remarks
2019-01-18 21:56 29 22 18 74 60° 14 - 30.10 30.12 9 OVC027 None
2019-01-18 20:56 30 22 21 71 60° 10 - 30.12 30.15 10 OVC023 None
2019-01-18 19:56 30 22 20 71 70° 13 - 30.11 30.14 10 OVC023 None
2019-01-18 18:56 30 22 21 71 60° 10 - 30.14 30.17 10 OVC020 None
2019-01-18 18:30 30 22 22 71 60° 8 - 30.15 - 10 BKN023 None
2019-01-18 18:09 30 22 22 71 50° 8 - 30.15 - 10 SCT023 SCT120 None
2019-01-18 17:56 31 22 21 68 50° 13 - 30.14 30.16 10 BKN023 BKN120 6-hr Min Temp (6pm): 30.9°F
6-hr Max Temp (6pm): 35.1°F
2019-01-18 16:56 32 23 25 68 50° 8 - 30.14 30.16 10 OVC020 None
2019-01-18 15:56 33 23 26 66 50° 8 - 30.14 30.16 10 OVC021 None
2019-01-18 14:56 33 24 26 69 10° 8 - 30.15 30.17 10 OVC022 None
2019-01-18 13:56 35 23 30 61 20° 6 - 30.15 30.18 10 OVC021 None
2019-01-18 12:56 35 23 - 61 - Calm - 30.16 30.18 10 OVC019 None
2019-01-18 12:14 35 23 - 61 - Calm - 30.17 - 10 OVC019 Pressure falling rapidly
2019-01-18 11:56 34 23 30 63 290° 5 - 30.19 30.21 10 6-hr Min Temp (12pm): 32.0°F
6-hr Max Temp (12pm): 36.0°F
2019-01-18 11:09 35 23 - 61 - - - 30.17 - 0 None
2019-01-18 10:56 35 23 30 61 20° 6 - 30.17 30.19 10 OVC019 None
2019-01-18 09:56 35 25 - 66 - Calm - 30.18 30.20 9 OVC023 None
2019-01-18 08:56 34 26 30 72 300° 5 - 30.16 30.18 6 HZ OVC021 None
2019-01-18 07:56 33 26 28 75 250° 6 - 30.14 30.16 5 HZ OVC019 None
2019-01-18 06:56 33 26 30 75 230° 3 - 30.12 30.14 6 HZ OVC015 None
2019-01-18 05:56 33 26 - 75 - Calm - 30.10 30.12 6 HZ OVC017 6-hr Min Temp (6am): 33.1°F
6-hr Max Temp (6am): 34.0°F
2019-01-18 05:33 33 26 29 75 280° 5 - 30.10 - 5 HZ FEW013 OVC019 None
2019-01-18 05:08 33 26 30 75 300° 3 - 30.10 - 6 HZ BKN013 OVC019 None
2019-01-18 04:56 33 26 29 75 300° 5 - 30.09 30.11 6 HZ SCT013 BKN019 OVC023 None
2019-01-18 04:36 33 26 28 75 280° 6 - 30.09 - 6 HZ SCT014 OVC023 None
2019-01-18 04:08 33 26 26 75 270° 8 - 30.10 - 6 HZ OVC014 None
2019-01-18 03:56 33 26 25 75 270° 9 - 30.10 30.12 6 HZ BKN015 OVC021 None
2019-01-18 03:32 33 26 26 75 280° 8 - 30.09 - 7 BKN019 OVC036 None
2019-01-18 02:56 33 26 26 75 280° 8 - 30.09 30.11 7 FEW021 OVC038 None
2019-01-18 02:03 33 26 26 75 280° 8 - 30.08 - 6 HZ SCT020 OVC043 None
2019-01-18 01:56 33 26 26 75 270° 8 - 30.08 30.11 6 HZ BKN020 OVC043 None
2019-01-18 01:27 33 26 26 75 270° 8 - 30.07 - 6 HZ BKN021 OVC046 None
2019-01-18 01:09 33 26 27 75 270° 7 - 30.06 - 6 HZ SCT021 OVC048 None
2019-01-18 00:56 33 27 27 77 270° 7 - 30.06 30.09 6 HZ BKN020 OVC048 None
2019-01-18 00:52 34 27 28 74 270° 7 - 30.06 - 6 HZ BKN020 OVC048 None
2019-01-18 00:36 34 27 28 75 280° 7 - 30.07 - 6 HZ SCT018 OVC047 None
2019-01-17 23:56 34 27 27 75 270° 8 - 30.07 30.09 6 HZ BKN016 BKN022 OVC045 6-hr Min Temp (12am): 34.0°F
6-hr Max Temp (12am): 35.1°F
24-hr Min Temp (12am): 27.0°F
24-hr Max Temp (12am): 36.0°F
2019-01-17 23:15 34 27 28 75 280° 7 - 30.06 - 8 BKN019 OVC049 None
2019-01-17 22:56 34 27 28 75 280° 7 - 30.05 30.07 8 OVC050 None

Support USWX by starting your Amazon purchase here.